Oak Bluffs, Massachusetts
Current Conditions -  °F | °C
As of 5:58 AM on Wednesday 22 Oct 2014 (Local Time) from KMVY Reporting Station
Overcast Overcast  
Wind Chill: 57°   Ceiling: 800
Heat Index: 57°   Visibility: 10mi
Dew Point: 56°   Wind: 12mph
Humidity: 96%   Direction: 20°NNE
Pressure: 29.92"   Gusts: NA
Location:  41.45°N, 70.56°W
Report Text: KMVY 220958Z 02010KT 10SM BKN008 OVC019 14/13 A2992 RMK AO2 CIG 006V012 T01390133
Loading
Personal Weather Stations






























Interactive Weather Map
Tropical Storm Tracking
New forecast layout! Learn more

10-Day Weather Forecast

Advertisements
Track Severe Weather on mobile